Time;durP1;ratioP1;P1;durP2;ratioP2;P2;SDS_P1;SDS_P2;PMS_P1;PMS_P2;Temp;Humidity;BMP_temperature;BMP_pressure;BME280_temperature;BME280_humidity;BME280_pressure;Samples;Min_cycle;Max_cycle;Signal;HPM_P1;HPM_P2
2024/02/17 00:02:06;;;;;;;36.30;24.08;;;;;;;;;;5054175;28;20028;-81
2024/02/17 00:04:32;;;;;;;37.80;25.80;;;;;;;;;;5052583;28;20051;-78
2024/02/17 00:06:58;;;;;;;40.85;23.88;;;;;;;;;;5052806;28;20017;-80
2024/02/17 00:09:24;;;;;;;33.17;22.27;;;;;;;;;;5053395;28;20032;-79
2024/02/17 00:11:50;;;;;;;31.00;20.20;;;;;;;;;;5053356;28;20221;-79
2024/02/17 00:14:16;;;;;;;34.65;20.42;;;;;;;;;;5054330;28;20021;-78
2024/02/17 00:16:42;;;;;;;35.10;21.63;;;;;;;;;;5051767;28;20396;-80
2024/02/17 00:19:12;;;;;;;35.83;21.77;;;;;;;;;;5050703;28;20025;-81
2024/02/17 00:21:38;;;;;;;37.45;23.45;;;;;;;;;;5050854;28;20384;-80
2024/02/17 00:24:04;;;;;;;42.78;25.38;;;;;;;;;;5050851;28;20102;-79
2024/02/17 00:26:31;;;;;;;47.95;26.23;;;;;;;;;;5051116;28;20112;-79
2024/02/17 00:28:59;;;;;;;40.30;25.85;;;;;;;;;;5051875;28;20017;-80
2024/02/17 00:31:25;;;;;;;45.25;25.65;;;;;;;;;;5051026;28;20052;-79
2024/02/17 00:33:52;;;;;;;45.35;26.60;;;;;;;;;;5055357;28;20381;-81
2024/02/17 00:36:18;;;;;;;39.85;25.15;;;;;;;;;;5051177;28;20457;-82
2024/02/17 00:38:44;;;;;;;42.42;24.88;;;;;;;;;;5054761;28;20112;-81
2024/02/17 00:41:11;;;;;;;37.65;25.73;;;;;;;;;;5055427;28;20369;-81
2024/02/17 00:43:37;;;;;;;40.60;24.77;;;;;;;;;;5054557;28;20019;-82
2024/02/17 00:46:04;;;;;;;37.30;23.95;;;;;;;;;;5055590;28;20104;-81
2024/02/17 00:48:32;;;;;;;39.85;26.30;;;;;;;;;;5054594;28;20031;-80
2024/02/17 00:50:58;;;;;;;37.55;21.33;;;;;;;;;;5054271;28;20389;-80
2024/02/17 00:53:24;;;;;;;41.00;25.13;;;;;;;;;;5054476;28;20145;-80
2024/02/17 00:55:50;;;;;;;39.15;24.30;;;;;;;;;;5055426;28;20380;-78
2024/02/17 00:58:16;;;;;;;42.88;24.77;;;;;;;;;;5054029;28;20405;-79
2024/02/17 01:00:42;;;;;;;52.50;26.73;;;;;;;;;;5054322;28;20021;-79
2024/02/17 01:03:11;;;;;;;36.05;24.27;;;;;;;;;;5054020;28;20029;-79
2024/02/17 01:05:38;;;;;;;40.00;23.63;;;;;;;;;;5054955;28;20045;-79
2024/02/17 01:08:05;;;;;;;46.70;25.65;;;;;;;;;;5053839;28;20061;-82
2024/02/17 01:10:31;;;;;;;38.63;23.30;;;;;;;;;;5054067;28;20025;-79
2024/02/17 01:12:57;;;;;;;41.88;25.02;;;;;;;;;;5054911;28;20157;-79
2024/02/17 01:15:23;;;;;;;45.90;23.98;;;;;;;;;;5054063;28;20056;-79
2024/02/17 01:17:49;;;;;;;40.00;24.50;;;;;;;;;;5054023;28;20082;-79
2024/02/17 01:20:16;;;;;;;40.25;24.42;;;;;;;;;;5053689;28;20120;-79
2024/02/17 01:22:42;;;;;;;41.25;24.13;;;;;;;;;;5053962;28;20473;-79
2024/02/17 01:25:08;;;;;;;37.45;24.83;;;;;;;;;;5054887;28;20065;-79
2024/02/17 01:27:34;;;;;;;35.88;24.15;;;;;;;;;;5053756;28;20045;-79
2024/02/17 01:30:00;;;;;;;33.85;23.40;;;;;;;;;;5054478;28;20357;-80
2024/02/17 01:32:26;;;;;;;34.47;22.40;;;;;;;;;;5053852;28;20021;-80
2024/02/17 01:34:52;;;;;;;40.78;24.35;;;;;;;;;;5053672;28;20531;-80
2024/02/17 01:37:18;;;;;;;42.03;24.80;;;;;;;;;;5053444;28;20053;-80
2024/02/17 01:39:44;;;;;;;44.55;25.60;;;;;;;;;;5053665;28;20024;-80
2024/02/17 01:42:11;;;;;;;43.50;25.25;;;;;;;;;;5053286;28;20021;-80
2024/02/17 01:44:37;;;;;;;41.53;25.65;;;;;;;;;;5053362;28;20116;-79
2024/02/17 01:47:04;;;;;;;41.72;25.15;;;;;;;;;;5052891;28;20028;-79
2024/02/17 01:49:30;;;;;;;36.47;23.55;;;;;;;;;;5054000;28;20040;-79
2024/02/17 01:51:57;;;;;;;47.10;25.30;;;;;;;;;;5054495;28;20100;-78
2024/02/17 01:54:24;;;;;;;39.20;24.45;;;;;;;;;;5053131;28;20025;-77
2024/02/17 01:56:50;;;;;;;47.65;27.05;;;;;;;;;;5053313;28;20025;-78
2024/02/17 01:59:16;;;;;;;46.88;25.50;;;;;;;;;;5052947;28;20025;-78
2024/02/17 02:01:46;;;;;;;42.15;23.17;;;;;;;;;;5053151;28;20033;-78
2024/02/17 02:04:12;;;;;;;40.47;23.33;;;;;;;;;;5052415;28;20049;-78
2024/02/17 02:06:41;;;;;;;49.22;22.73;;;;;;;;;;5053061;28;20429;-77
2024/02/17 02:09:07;;;;;;;41.60;23.42;;;;;;;;;;5053788;28;20159;-78
2024/02/17 02:11:33;;;;;;;42.13;23.27;;;;;;;;;;5052949;28;20060;-80
2024/02/17 02:14:18;;;;;;;40.17;22.30;;;;;;;;;;5054058;28;20045;-80
2024/02/17 02:16:45;;;;;;;41.67;23.77;;;;;;;;;;5052831;28;20033;-80
2024/02/17 02:19:14;;;;;;;42.03;23.27;;;;;;;;;;5052455;28;20024;-83
2024/02/17 02:21:40;;;;;;;44.30;23.85;;;;;;;;;;5054643;28;20092;-84
2024/02/17 02:24:06;;;;;;;42.28;23.88;;;;;;;;;;5053954;28;20033;-83
2024/02/17 02:26:32;;;;;;;38.72;24.08;;;;;;;;;;5053025;28;20025;-82
2024/02/17 02:28:59;;;;;;;41.00;21.20;;;;;;;;;;5053088;28;20075;-82
2024/02/17 02:31:25;;;;;;;37.38;21.60;;;;;;;;;;5054954;28;20100;-82
2024/02/17 02:33:51;;;;;;;45.92;25.75;;;;;;;;;;5055697;28;20060;-82
2024/02/17 02:36:18;;;;;;;41.75;24.60;;;;;;;;;;5052429;28;20017;-82
2024/02/17 02:38:44;;;;;;;45.78;24.10;;;;;;;;;;5053976;28;20021;-80
2024/02/17 02:41:11;;;;;;;39.67;22.73;;;;;;;;;;5051937;28;20032;-80
2024/02/17 02:43:37;;;;;;;45.97;23.30;;;;;;;;;;5052372;28;20017;-79
2024/02/17 02:46:03;;;;;;;46.25;24.15;;;;;;;;;;5051982;28;20253;-80
2024/02/17 02:48:29;;;;;;;45.88;23.67;;;;;;;;;;5053297;28;20017;-80
2024/02/17 02:50:55;;;;;;;52.17;25.48;;;;;;;;;;5052238;28;20025;-80
2024/02/17 02:53:21;;;;;;;46.63;25.13;;;;;;;;;;5051954;28;20058;-79
2024/02/17 02:55:47;;;;;;;48.78;26.83;;;;;;;;;;5052095;28;20078;-79
2024/02/17 02:58:14;;;;;;;41.95;24.83;;;;;;;;;;5051816;28;20044;-80
2024/02/17 03:00:40;;;;;;;45.15;24.13;;;;;;;;;;5052058;28;20416;-83
2024/02/17 03:03:06;;;;;;;50.17;26.95;;;;;;;;;;5051803;28;20029;-83
2024/02/17 03:05:32;;;;;;;42.67;23.48;;;;;;;;;;5051395;28;20481;-80
2024/02/17 03:07:58;;;;;;;43.80;26.02;;;;;;;;;;5052985;28;20104;-80
2024/02/17 03:10:24;;;;;;;42.35;25.50;;;;;;;;;;5051410;28;20029;-80
2024/02/17 03:12:50;;;;;;;48.20;27.67;;;;;;;;;;5051633;28;20024;-79
2024/02/17 03:15:16;;;;;;;48.63;28.40;;;;;;;;;;5051254;28;20025;-77
2024/02/17 03:17:42;;;;;;;52.42;27.60;;;;;;;;;;5052944;28;20508;-78
2024/02/17 03:20:09;;;;;;;49.03;26.88;;;;;;;;;;5051398;28;20033;-78
2024/02/17 03:22:35;;;;;;;47.45;25.38;;;;;;;;;;5053181;28;20021;-78
2024/02/17 03:25:01;;;;;;;50.63;27.55;;;;;;;;;;5051403;28;20025;-78
2024/02/17 03:27:27;;;;;;;47.58;25.50;;;;;;;;;;5051333;28;20136;-79
2024/02/17 03:29:53;;;;;;;47.35;26.42;;;;;;;;;;5051380;28;20021;-81
2024/02/17 03:32:20;;;;;;;45.70;24.88;;;;;;;;;;5051154;28;20053;-81
2024/02/17 03:34:46;;;;;;;47.85;27.15;;;;;;;;;;5051445;28;20387;-82
2024/02/17 03:37:12;;;;;;;43.90;25.13;;;;;;;;;;5051094;28;20286;-80
2024/02/17 03:39:38;;;;;;;50.13;27.92;;;;;;;;;;5052575;28;20021;-81
2024/02/17 03:42:04;;;;;;;52.92;28.30;;;;;;;;;;5052610;28;20098;-81
2024/02/17 03:44:30;;;;;;;47.70;27.58;;;;;;;;;;5050864;28;20025;-80
2024/02/17 03:46:56;;;;;;;43.40;27.63;;;;;;;;;;5051194;28;20021;-81
2024/02/17 03:49:24;;;;;;;64.70;29.60;;;;;;;;;;5050956;28;20048;-80
2024/02/17 03:51:50;;;;;;;93.70;41.70;;;;;;;;;;5052455;28;20021;-80
2024/02/17 03:54:17;;;;;;;114.10;47.55;;;;;;;;;;5051881;28;20496;-80
2024/02/17 03:56:43;;;;;;;62.95;33.55;;;;;;;;;;5050906;28;20021;-79
2024/02/17 03:59:09;;;;;;;99.57;51.17;;;;;;;;;;5050678;28;20120;-81
2024/02/17 04:01:39;;;;;;;67.97;37.90;;;;;;;;;;5050940;28;20020;-81
2024/02/17 04:04:05;;;;;;;63.28;33.92;;;;;;;;;;5050332;28;20099;-81
2024/02/17 04:06:31;;;;;;;70.13;35.60;;;;;;;;;;5050372;28;20152;-81
2024/02/17 04:08:57;;;;;;;72.45;36.78;;;;;;;;;;5050470;28;20021;-81
2024/02/17 04:11:24;;;;;;;71.07;35.28;;;;;;;;;;5051218;28;20024;-80
2024/02/17 04:13:50;;;;;;;56.03;32.10;;;;;;;;;;5050596;28;20082;-81
2024/02/17 04:16:16;;;;;;;81.50;43.25;;;;;;;;;;5050726;28;20025;-81
2024/02/17 04:18:42;;;;;;;82.60;42.33;;;;;;;;;;5052131;28;20025;-80
2024/02/17 04:21:09;;;;;;;82.28;39.35;;;;;;;;;;5052098;28;20027;-81
2024/02/17 04:23:35;;;;;;;68.32;35.47;;;;;;;;;;5050415;28;20021;-81
2024/02/17 04:26:03;;;;;;;71.35;35.75;;;;;;;;;;5050756;28;20025;-82
2024/02/17 04:28:29;;;;;;;75.47;38.60;;;;;;;;;;5050423;28;20119;-82
2024/02/17 04:30:57;;;;;;;66.88;35.15;;;;;;;;;;5051955;28;20475;-82
2024/02/17 04:33:25;;;;;;;65.88;35.83;;;;;;;;;;5050554;28;20021;-81
2024/02/17 04:35:51;;;;;;;63.15;33.13;;;;;;;;;;5051633;28;20040;-81
2024/02/17 04:38:18;;;;;;;58.40;30.83;;;;;;;;;;5050453;28;20117;-82
2024/02/17 04:40:44;;;;;;;55.38;30.60;;;;;;;;;;5050866;28;20082;-81
2024/02/17 04:43:10;;;;;;;52.80;30.67;;;;;;;;;;5050769;28;20033;-80
2024/02/17 04:45:36;;;;;;;46.40;26.23;;;;;;;;;;5050518;28;20036;-79
2024/02/17 04:48:02;;;;;;;52.22;29.85;;;;;;;;;;5050764;28;20059;-78
2024/02/17 04:50:28;;;;;;;49.03;28.23;;;;;;;;;;5050295;28;20040;-79
2024/02/17 04:52:54;;;;;;;46.65;27.88;;;;;;;;;;5050167;28;20039;-79
2024/02/17 04:55:20;;;;;;;49.65;27.35;;;;;;;;;;5051537;28;20025;-79
2024/02/17 04:57:46;;;;;;;49.75;27.80;;;;;;;;;;5051753;28;20463;-79
2024/02/17 05:00:12;;;;;;;55.25;29.63;;;;;;;;;;5050134;28;20017;-80
2024/02/17 05:02:39;;;;;;;49.88;29.13;;;;;;;;;;5050328;28;20108;-80
2024/02/17 05:05:05;;;;;;;48.42;27.17;;;;;;;;;;5049885;28;20143;-80
2024/02/17 05:07:31;;;;;;;51.60;28.05;;;;;;;;;;5050090;28;20029;-81
2024/02/17 05:09:57;;;;;;;45.20;25.40;;;;;;;;;;5050345;28;20436;-79
2024/02/17 05:12:23;;;;;;;49.08;25.08;;;;;;;;;;5050032;28;20048;-79
2024/02/17 05:14:49;;;;;;;45.33;26.95;;;;;;;;;;5050191;28;20465;-78
2024/02/17 05:17:15;;;;;;;48.58;27.25;;;;;;;;;;5049953;28;20415;-78
2024/02/17 05:19:41;;;;;;;52.35;28.33;;;;;;;;;;5050279;28;20515;-79
2024/02/17 05:22:07;;;;;;;41.70;25.73;;;;;;;;;;5049907;28;20033;-80
2024/02/17 05:24:34;;;;;;;46.17;23.98;;;;;;;;;;5052675;28;20226;-80
2024/02/17 05:27:00;;;;;;;43.20;24.80;;;;;;;;;;5053747;28;20025;-79
2024/02/17 05:29:26;;;;;;;46.55;26.02;;;;;;;;;;5053477;28;20025;-79
2024/02/17 05:31:52;;;;;;;39.50;23.63;;;;;;;;;;5053741;28;20032;-78
2024/02/17 05:34:19;;;;;;;46.92;26.45;;;;;;;;;;5053351;28;20067;-78
2024/02/17 05:36:45;;;;;;;45.85;25.80;;;;;;;;;;5054963;28;20014;-78
2024/02/17 05:39:11;;;;;;;44.80;24.40;;;;;;;;;;5054769;28;20469;-81
2024/02/17 05:41:37;;;;;;;45.00;25.48;;;;;;;;;;5053500;28;20075;-79
2024/02/17 05:44:04;;;;;;;45.70;24.25;;;;;;;;;;5053666;28;20025;-80
2024/02/17 05:46:30;;;;;;;40.22;22.58;;;;;;;;;;5053695;28;20451;-80
2024/02/17 05:48:56;;;;;;;37.53;23.08;;;;;;;;;;5053488;28;20031;-81
2024/02/17 05:51:22;;;;;;;38.10;23.75;;;;;;;;;;5053182;28;20045;-79
2024/02/17 05:53:48;;;;;;;39.70;24.17;;;;;;;;;;5053559;28;20167;-80
2024/02/17 05:56:14;;;;;;;44.78;26.92;;;;;;;;;;5054440;28;20021;-79
2024/02/17 05:58:41;;;;;;;48.25;27.92;;;;;;;;;;5053354;28;20074;-79
2024/02/17 06:01:07;;;;;;;39.83;23.63;;;;;;;;;;5053212;28;20031;-79
2024/02/17 06:03:33;;;;;;;41.47;22.05;;;;;;;;;;5054241;28;20020;-79
2024/02/17 06:05:59;;;;;;;38.95;23.40;;;;;;;;;;5054510;28;20132;-79
2024/02/17 06:08:25;;;;;;;42.75;23.85;;;;;;;;;;5054813;28;20045;-78
2024/02/17 06:10:51;;;;;;;43.17;23.13;;;;;;;;;;5053716;28;20025;-78
2024/02/17 06:13:20;;;;;;;36.65;21.52;;;;;;;;;;5053649;28;20067;-79
2024/02/17 06:15:46;;;;;;;35.08;21.27;;;;;;;;;;5053452;28;20060;-80
2024/02/17 06:21:13;;;;;;;38.72;21.85;;;;;;;;;;5054467;28;20056;-81
2024/02/17 06:23:40;;;;;;;41.75;23.00;;;;;;;;;;5052571;28;20461;-79
2024/02/17 06:26:06;;;;;;;43.35;21.67;;;;;;;;;;5053106;28;20029;-79
2024/02/17 06:28:32;;;;;;;43.33;25.02;;;;;;;;;;5052270;28;20036;-79
2024/02/17 06:30:58;;;;;;;44.00;25.48;;;;;;;;;;5054079;28;20067;-80
2024/02/17 06:33:26;;;;;;;37.78;22.33;;;;;;;;;;5052363;28;20025;-81
2024/02/17 06:35:52;;;;;;;35.70;22.27;;;;;;;;;;5051925;28;20029;-79
2024/02/17 06:38:18;;;;;;;33.22;20.55;;;;;;;;;;5052232;28;20029;-79
2024/02/17 06:40:44;;;;;;;41.85;24.20;;;;;;;;;;5052364;28;20495;-80
2024/02/17 06:43:10;;;;;;;36.97;23.42;;;;;;;;;;5053679;28;20059;-80
2024/02/17 06:45:36;;;;;;;42.17;22.23;;;;;;;;;;5051871;28;20021;-80
2024/02/17 06:48:02;;;;;;;37.75;21.77;;;;;;;;;;5053535;28;20465;-80
2024/02/17 06:50:28;;;;;;;32.40;19.90;;;;;;;;;;5051947;28;20443;-80
2024/02/17 06:52:54;;;;;;;44.70;25.98;;;;;;;;;;5051900;28;20052;-79
2024/02/17 06:55:21;;;;;;;32.55;18.48;;;;;;;;;;5051812;28;20061;-78
2024/02/17 06:57:47;;;;;;;38.90;23.92;;;;;;;;;;5053292;28;20112;-78
2024/02/17 07:00:13;;;;;;;34.65;20.58;;;;;;;;;;5054068;28;20063;-77
2024/02/17 07:02:39;;;;;;;37.53;23.05;;;;;;;;;;5051895;28;20064;-79
2024/02/17 07:05:05;;;;;;;30.27;18.77;;;;;;;;;;5053279;28;20079;-78
2024/02/17 07:07:31;;;;;;;34.63;22.20;;;;;;;;;;5051630;28;20028;-78
2024/02/17 07:10:03;;;;;;;29.98;18.35;;;;;;;;;;5051741;28;20024;-79
2024/02/17 07:12:31;;;;;;;41.13;24.35;;;;;;;;;;5051487;28;20461;-78
2024/02/17 07:14:57;;;;;;;34.80;22.63;;;;;;;;;;5051683;28;20029;-78
2024/02/17 07:17:23;;;;;;;38.05;23.52;;;;;;;;;;5051427;28;20362;-79
2024/02/17 07:19:49;;;;;;;55.25;37.22;;;;;;;;;;5051593;28;20362;-79
2024/02/17 07:22:15;;;;;;;18.40;9.38;;;;;;;;;;5051559;28;20048;-79
2024/02/17 07:24:44;;;;;;;29.38;19.10;;;;;;;;;;5051203;28;20037;-79
2024/02/17 07:27:10;;;;;;;35.72;21.27;;;;;;;;;;5051511;28;20445;-79
2024/02/17 07:29:38;;;;;;;31.25;18.70;;;;;;;;;;5051020;28;20029;-79
2024/02/17 07:32:05;;;;;;;38.60;22.45;;;;;;;;;;5051428;28;20025;-78
2024/02/17 07:34:31;;;;;;;36.13;21.92;;;;;;;;;;5051168;28;20082;-77
2024/02/17 07:36:58;;;;;;;34.22;21.65;;;;;;;;;;5052680;28;20381;-78
2024/02/17 07:39:25;;;;;;;39.42;21.30;;;;;;;;;;5052681;28;20041;-78
2024/02/17 07:41:54;;;;;;;38.88;23.10;;;;;;;;;;5054777;28;20021;-79
2024/02/17 07:44:23;;;;;;;31.05;21.83;;;;;;;;;;5072073;28;20403;-80
2024/02/17 07:46:49;;;;;;;35.85;22.40;;;;;;;;;;5070592;28;20131;-80
2024/02/17 07:49:18;;;;;;;34.50;21.60;;;;;;;;;;5071170;28;20437;-80
2024/02/17 07:51:44;;;;;;;40.42;21.17;;;;;;;;;;5070914;28;20034;-79
2024/02/17 07:54:10;;;;;;;34.83;22.60;;;;;;;;;;5071166;28;20028;-80
2024/02/17 07:56:36;;;;;;;29.95;19.30;;;;;;;;;;5071957;28;20360;-80
2024/02/17 07:59:03;;;;;;;33.90;21.70;;;;;;;;;;5072161;28;20374;-80
2024/02/17 08:01:29;;;;;;;36.88;22.48;;;;;;;;;;5070835;28;20114;-81
2024/02/17 08:03:55;;;;;;;37.38;23.35;;;;;;;;;;5071090;28;20028;-81
2024/02/17 08:06:23;;;;;;;35.88;23.27;;;;;;;;;;5072166;28;20522;-80
2024/02/17 08:08:49;;;;;;;35.65;22.35;;;;;;;;;;5070768;28;20484;-79
2024/02/17 08:11:15;;;;;;;30.90;18.85;;;;;;;;;;5071087;28;20020;-80
2024/02/17 08:13:42;;;;;;;32.58;22.13;;;;;;;;;;5070447;28;20108;-80
2024/02/17 08:16:08;;;;;;;33.88;22.52;;;;;;;;;;5072102;28;20039;-80
2024/02/17 08:18:34;;;;;;;21.80;11.38;;;;;;;;;;5070594;28;20391;-79
2024/02/17 08:21:02;;;;;;;36.80;20.08;;;;;;;;;;5070856;28;20021;-79
2024/02/17 08:23:28;;;;;;;33.05;19.15;;;;;;;;;;5071905;28;20016;-79
2024/02/17 08:25:58;;;;;;;32.90;19.85;;;;;;;;;;5070751;28;20037;-80
2024/02/17 08:28:24;;;;;;;37.60;22.67;;;;;;;;;;5070707;28;20116;-78
2024/02/17 08:30:51;;;;;;;33.30;18.75;;;;;;;;;;5070845;28;20025;-80
2024/02/17 08:33:17;;;;;;;30.35;19.42;;;;;;;;;;5070750;28;20464;-80
2024/02/17 08:35:45;;;;;;;28.60;16.77;;;;;;;;;;5070499;28;20054;-81
2024/02/17 08:38:11;;;;;;;28.95;15.27;;;;;;;;;;5070830;28;20025;-80
2024/02/17 08:40:37;;;;;;;36.97;19.98;;;;;;;;;;5070587;28;20380;-81
2024/02/17 08:43:04;;;;;;;29.55;17.08;;;;;;;;;;5070738;28;20024;-80
2024/02/17 08:45:31;;;;;;;37.60;21.40;;;;;;;;;;5070497;28;20056;-82
2024/02/17 08:47:57;;;;;;;28.90;16.15;;;;;;;;;;5070626;28;20031;-81
2024/02/17 08:50:23;;;;;;;29.15;14.80;;;;;;;;;;5070705;28;20031;-81
2024/02/17 08:52:49;;;;;;;33.88;18.40;;;;;;;;;;5070314;28;20031;-80
2024/02/17 08:55:16;;;;;;;39.20;20.92;;;;;;;;;;5070550;28;20490;-81
2024/02/17 08:57:42;;;;;;;43.03;21.70;;;;;;;;;;5072055;28;20590;-81
2024/02/17 09:00:08;;;;;;;39.88;21.83;;;;;;;;;;5074466;28;20032;-81
2024/02/17 09:02:34;;;;;;;40.35;17.90;;;;;;;;;;5074118;28;20028;-82
2024/02/17 09:05:01;;;;;;;39.00;22.58;;;;;;;;;;5074209;28;20063;-80
2024/02/17 09:07:28;;;;;;;39.47;22.08;;;;;;;;;;5073967;28;20024;-80
2024/02/17 09:09:54;;;;;;;35.38;19.40;;;;;;;;;;5075587;28;20024;-81
2024/02/17 09:12:21;;;;;;;38.03;19.17;;;;;;;;;;5074191;28;20036;-81
2024/02/17 09:14:50;;;;;;;31.65;18.83;;;;;;;;;;5074560;28;20049;-80
2024/02/17 09:17:16;;;;;;;39.25;21.70;;;;;;;;;;5074164;28;20060;-80
2024/02/17 09:19:42;;;;;;;37.83;22.55;;;;;;;;;;5074180;28;20028;-80
2024/02/17 09:22:09;;;;;;;40.38;22.30;;;;;;;;;;5074538;28;20025;-80
2024/02/17 09:24:35;;;;;;;44.00;24.05;;;;;;;;;;5074815;28;20033;-81
2024/02/17 09:27:01;;;;;;;47.42;24.40;;;;;;;;;;5074045;28;20032;-81
2024/02/17 09:29:30;;;;;;;42.65;23.40;;;;;;;;;;5073712;28;20020;-81
2024/02/17 09:31:56;;;;;;;32.58;18.70;;;;;;;;;;5073807;28;20501;-80
2024/02/17 09:34:22;;;;;;;35.53;20.00;;;;;;;;;;5073670;28;20020;-82
2024/02/17 09:36:48;;;;;;;36.58;22.92;;;;;;;;;;5073634;28;20536;-81
2024/02/17 09:39:14;;;;;;;31.35;17.38;;;;;;;;;;5073844;28;20383;-83
2024/02/17 09:41:41;;;;;;;35.97;23.02;;;;;;;;;;5073588;28;20032;-83
2024/02/17 09:44:07;;;;;;;28.83;16.40;;;;;;;;;;5075011;28;20016;-80
2024/02/17 09:46:33;;;;;;;30.70;17.13;;;;;;;;;;5073998;28;20051;-82
2024/02/17 09:49:00;;;;;;;32.90;19.35;;;;;;;;;;5073755;28;20522;-82
2024/02/17 09:51:26;;;;;;;30.55;17.35;;;;;;;;;;5074288;28;20025;-82
2024/02/17 09:53:53;;;;;;;30.38;17.30;;;;;;;;;;5073333;28;20024;-82
2024/02/17 09:56:21;;;;;;;35.15;20.83;;;;;;;;;;5073437;28;20033;-81
2024/02/17 09:58:47;;;;;;;34.55;21.42;;;;;;;;;;5075074;28;20049;-81
2024/02/17 10:01:13;;;;;;;32.83;20.70;;;;;;;;;;5073314;28;20028;-81
2024/02/17 10:03:39;;;;;;;32.35;20.15;;;;;;;;;;5072733;28;20029;-81
2024/02/17 10:06:10;;;;;;;27.50;17.33;;;;;;;;;;5072823;28;20048;-81
2024/02/17 10:08:36;;;;;;;32.17;19.65;;;;;;;;;;5072646;28;20562;-81
2024/02/17 10:11:02;;;;;;;34.28;20.33;;;;;;;;;;5073095;28;20193;-82
2024/02/17 10:13:28;;;;;;;36.30;21.70;;;;;;;;;;5074130;28;20029;-82
2024/02/17 10:15:54;;;;;;;33.50;19.67;;;;;;;;;;5074326;28;20500;-81
2024/02/17 10:18:20;;;;;;;31.88;18.98;;;;;;;;;;5074694;28;20033;-82
2024/02/17 10:20:46;;;;;;;29.65;18.42;;;;;;;;;;5072880;28;20111;-82
2024/02/17 10:23:13;;;;;;;30.15;18.92;;;;;;;;;;5073140;28;20021;-82
2024/02/17 10:25:40;;;;;;;33.83;23.20;;;;;;;;;;5072864;28;20037;-83
2024/02/17 10:28:07;;;;;;;21.48;16.08;;;;;;;;;;5074304;28;20104;-83
2024/02/17 10:30:33;;;;;;;33.13;21.00;;;;;;;;;;5072770;28;20024;-82
2024/02/17 10:33:00;;;;;;;41.38;23.88;;;;;;;;;;5073150;28;20024;-81
2024/02/17 10:35:26;;;;;;;33.70;23.10;;;;;;;;;;5072830;28;20025;-82
2024/02/17 10:37:53;;;;;;;33.38;22.40;;;;;;;;;;5072602;28;20055;-82
2024/02/17 10:40:20;;;;;;;31.75;20.67;;;;;;;;;;5072801;28;20031;-81
2024/02/17 10:42:48;;;;;;;37.08;22.42;;;;;;;;;;5072435;28;20024;-82
2024/02/17 10:45:14;;;;;;;28.83;20.13;;;;;;;;;;5073772;28;20396;-81
2024/02/17 10:47:42;;;;;;;37.15;20.67;;;;;;;;;;5073639;28;20024;-81
2024/02/17 10:50:13;;;;;;;32.50;19.42;;;;;;;;;;5072276;28;20028;-82
2024/02/17 10:52:42;;;;;;;28.13;18.65;;;;;;;;;;5072118;28;20017;-81
2024/02/17 10:55:11;;;;;;;30.13;19.58;;;;;;;;;;5072781;28;20028;-83
2024/02/17 10:57:49;;;;;;;27.58;19.83;;;;;;;;;;5072802;28;20032;-84
2024/02/17 11:00:16;;;;;;;25.35;17.20;;;;;;;;;;5073768;28;20035;-83
2024/02/17 11:02:43;;;;;;;25.27;15.15;;;;;;;;;;5073634;28;20028;-84
2024/02/17 11:05:09;;;;;;;29.67;16.90;;;;;;;;;;5073648;28;20415;-83
2024/02/17 11:07:35;;;;;;;30.10;18.48;;;;;;;;;;5072776;28;20055;-83
2024/02/17 11:10:07;;;;;;;35.92;17.98;;;;;;;;;;5072763;28;20504;-82
2024/02/17 11:12:35;;;;;;;27.95;17.60;;;;;;;;;;5072789;28;20107;-84
2024/02/17 11:15:08;;;;;;;29.13;17.25;;;;;;;;;;5072161;28;20055;-83
2024/02/17 11:17:40;;;;;;;26.92;17.35;;;;;;;;;;5064385;28;20539;-82
2024/02/17 11:20:11;;;;;;;34.75;18.13;;;;;;;;;;5061850;28;20625;-81
2024/02/17 11:22:38;;;;;;;32.72;19.33;;;;;;;;;;5057083;28;20043;-82
2024/02/17 11:25:05;;;;;;;29.55;17.73;;;;;;;;;;5053081;28;20128;-84
2024/02/17 11:27:31;;;;;;;25.73;16.05;;;;;;;;;;5052421;28;20426;-83
2024/02/17 11:29:58;;;;;;;30.25;16.67;;;;;;;;;;5052198;28;20491;-83
2024/02/17 11:32:27;;;;;;;26.58;16.77;;;;;;;;;;5052992;28;20055;-82
2024/02/17 11:34:55;;;;;;;30.10;18.55;;;;;;;;;;5053942;28;20025;-81
2024/02/17 11:37:22;;;;;;;29.05;17.33;;;;;;;;;;5054455;28;20028;-81
2024/02/17 11:39:50;;;;;;;24.48;14.45;;;;;;;;;;5055628;28;20025;-83
2024/02/17 11:42:17;;;;;;;31.42;16.95;;;;;;;;;;5052128;28;20029;-84
2024/02/17 11:44:45;;;;;;;30.40;18.30;;;;;;;;;;5058843;28;20025;-87
2024/02/17 11:47:12;;;;;;;28.45;19.67;;;;;;;;;;5060770;28;20476;-87
2024/02/17 11:49:38;;;;;;;28.35;16.58;;;;;;;;;;5064107;28;20147;-86
2024/02/17 11:52:04;;;;;;;27.30;16.58;;;;;;;;;;5072360;28;20302;-86
2024/02/17 11:54:30;;;;;;;26.77;17.63;;;;;;;;;;5072267;28;20028;-86
2024/02/17 11:56:56;;;;;;;29.38;17.75;;;;;;;;;;5071547;28;20036;-86
2024/02/17 11:59:23;;;;;;;30.25;18.90;;;;;;;;;;5071489;28;20025;-84
2024/02/17 12:01:55;;;;;;;32.90;18.75;;;;;;;;;;5074110;28;20451;-85
2024/02/17 12:04:22;;;;;;;30.55;18.08;;;;;;;;;;5072299;28;20165;-85
2024/02/17 12:06:48;;;;;;;31.15;19.15;;;;;;;;;;5071154;28;20067;-85
2024/02/17 12:09:15;;;;;;;28.38;18.50;;;;;;;;;;5071969;28;20027;-85
2024/02/17 12:11:41;;;;;;;30.65;16.90;;;;;;;;;;5072287;28;20074;-85
2024/02/17 12:14:09;;;;;;;29.42;18.73;;;;;;;;;;5072461;28;20021;-86
2024/02/17 12:16:35;;;;;;;32.67;18.83;;;;;;;;;;5072242;28;20464;-86
2024/02/17 12:19:01;;;;;;;30.48;20.77;;;;;;;;;;5072534;28;20016;-86
2024/02/17 12:21:27;;;;;;;29.83;18.25;;;;;;;;;;5072736;28;20035;-87
2024/02/17 12:23:55;;;;;;;30.33;19.13;;;;;;;;;;5072962;28;20025;-86
2024/02/17 12:26:23;;;;;;;31.73;18.25;;;;;;;;;;5072633;28;20033;-85
2024/02/17 12:28:49;;;;;;;33.97;19.25;;;;;;;;;;5073139;28;20460;-86
2024/02/17 12:31:15;;;;;;;28.05;19.42;;;;;;;;;;5073215;28;20028;-86
2024/02/17 12:33:51;;;;;;;25.85;18.27;;;;;;;;;;5075612;28;20016;-85
2024/02/17 12:36:21;;;;;;;26.83;17.35;;;;;;;;;;5077281;28;20096;-86
2024/02/17 12:38:47;;;;;;;35.13;19.42;;;;;;;;;;5076189;28;20177;-85
2024/02/17 12:41:16;;;;;;;28.95;17.38;;;;;;;;;;5075908;28;20491;-85
2024/02/17 12:43:48;;;;;;;29.75;17.10;;;;;;;;;;5076511;28;20078;-85
2024/02/17 12:46:21;;;;;;;29.30;18.13;;;;;;;;;;5076774;28;20128;-84
2024/02/17 12:48:49;;;;;;;31.05;18.02;;;;;;;;;;5077263;28;20029;-85
2024/02/17 12:51:19;;;;;;;29.33;17.80;;;;;;;;;;5077139;28;20021;-85
2024/02/17 12:53:45;;;;;;;29.48;16.98;;;;;;;;;;5076810;28;20029;-85
2024/02/17 12:56:11;;;;;;;30.67;17.50;;;;;;;;;;5075831;28;20032;-85
2024/02/17 12:58:37;;;;;;;31.63;16.05;;;;;;;;;;5074610;28;20043;-84
2024/02/17 13:01:03;;;;;;;27.77;15.00;;;;;;;;;;5074567;28;20032;-83
2024/02/17 13:03:29;;;;;;;27.95;16.50;;;;;;;;;;5074889;28;20039;-84
2024/02/17 13:05:55;;;;;;;25.38;16.50;;;;;;;;;;5074109;28;20412;-86
2024/02/17 13:08:22;;;;;;;26.35;14.63;;;;;;;;;;5074790;28;20036;-86
2024/02/17 13:10:48;;;;;;;23.55;16.50;;;;;;;;;;5076429;28;20040;-86
2024/02/17 13:13:14;;;;;;;25.77;15.88;;;;;;;;;;5078782;28;20063;-87
2024/02/17 13:15:40;;;;;;;16.55;8.25;;;;;;;;;;5080663;28;20035;-85
2024/02/17 13:18:07;;;;;;;26.92;16.33;;;;;;;;;;5080720;28;20379;-86
2024/02/17 13:20:33;;;;;;;23.73;15.85;;;;;;;;;;5080713;28;20350;-84
2024/02/17 13:22:59;;;;;;;26.55;17.80;;;;;;;;;;5080479;28;20100;-86
2024/02/17 13:25:25;;;;;;;23.90;14.70;;;;;;;;;;5079833;28;20373;-84
2024/02/17 13:27:51;;;;;;;24.65;16.50;;;;;;;;;;5077077;28;20029;-86
2024/02/17 13:30:18;;;;;;;26.85;18.30;;;;;;;;;;5075690;28;20145;-85
2024/02/17 13:32:45;;;;;;;24.48;16.13;;;;;;;;;;5076705;28;20059;-85
2024/02/17 13:35:19;;;;;;;27.00;17.02;;;;;;;;;;5076092;28;20352;-86
2024/02/17 13:37:45;;;;;;;27.73;17.05;;;;;;;;;;5078556;28;20035;-85
2024/02/17 13:40:19;;;;;;;32.97;19.33;;;;;;;;;;5079971;28;20024;-85
2024/02/17 13:42:46;;;;;;;30.35;18.15;;;;;;;;;;5075738;28;20028;-84
2024/02/17 13:45:12;;;;;;;28.40;16.85;;;;;;;;;;5074055;28;20047;-86
2024/02/17 13:47:39;;;;;;;33.25;20.20;;;;;;;;;;5080372;28;20029;-85
2024/02/17 13:50:09;;;;;;;35.78;20.35;;;;;;;;;;5090875;28;20038;-86
2024/02/17 13:52:35;;;;;;;31.30;19.50;;;;;;;;;;5097841;28;20452;-88
2024/02/17 13:55:01;;;;;;;31.17;19.88;;;;;;;;;;5098360;28;20033;-88
2024/02/17 13:57:28;;;;;;;30.67;19.63;;;;;;;;;;5088833;28;20051;-88
2024/02/17 13:59:55;;;;;;;27.35;18.55;;;;;;;;;;5078687;28;20031;-85
2024/02/17 14:02:26;;;;;;;29.55;19.80;;;;;;;;;;5075290;28;20054;-86
2024/02/17 14:04:52;;;;;;;28.25;18.85;;;;;;;;;;5074896;28;20503;-87
2024/02/17 14:07:18;;;;;;;28.80;20.30;;;;;;;;;;5075398;28;20456;-84
2024/02/17 14:09:45;;;;;;;25.63;18.40;;;;;;;;;;5075220;28;20022;-87
2024/02/17 14:12:14;;;;;;;36.15;21.25;;;;;;;;;;5076257;28;20028;-87
2024/02/17 14:14:40;;;;;;;26.37;19.27;;;;;;;;;;5075280;28;20024;-87
2024/02/17 14:17:07;;;;;;;28.70;20.27;;;;;;;;;;5076589;28;20366;-87